Time;durP1;ratioP1;P1;durP2;ratioP2;P2;SDS_P1;SDS_P2;PMS_P1;PMS_P2;Temp;Humidity;BMP_temperature;BMP_pressure;BME280_temperature;BME280_humidity;BME280_pressure;Samples;Min_cycle;Max_cycle;Signal;HPM_P1;HPM_P2
2021/12/16 00:09:15;;;;;;;28.85;15.40;;;;;;;6.05;100.00;98167.66;5057371;28;20029;-71
2021/12/16 00:35:40;;;;;;;34.17;16.55;;;;;;;6.18;100.00;98177.72;5058622;28;20509;-72
2021/12/16 00:38:06;;;;;;;37.28;17.58;;;;;;;6.18;100.00;98183.03;5058758;28;20466;-71
2021/12/16 00:40:33;;;;;;;39.08;16.88;;;;;;;6.13;100.00;98180.91;5043442;28;20072;-71
2021/12/16 00:43:12;;;;;;;40.90;18.90;;;;;;;6.14;100.00;98184.38;5058201;28;20139;-72
2021/12/16 00:48:25;;;;;;;46.08;20.33;;;;;;;6.20;100.00;98182.84;5058747;28;20044;-72
2021/12/16 00:56:13;;;;;;;44.38;18.90;;;;;;;6.19;100.00;98184.69;5058454;28;20383;-73
2021/12/16 00:58:46;;;;;;;42.33;18.02;;;;;;;6.17;100.00;98180.56;5047578;28;20028;-73
2021/12/16 01:02:10;;;;;;;39.83;19.10;;;;;;;6.10;100.00;98180.44;5058679;28;20048;-73
2021/12/16 01:48:06;;;;;;;47.78;18.20;;;;;;;5.88;100.00;98198.00;5054148;28;20059;-71
2021/12/16 01:50:19;;;;;;;76.15;18.33;;;;;;;5.88;100.00;98193.50;5054955;28;20124;-74
2021/12/16 01:55:31;;;;;;;43.75;18.02;;;;;;;5.90;100.00;98192.50;5041369;28;20031;-72
2021/12/16 01:58:09;;;;;;;41.38;18.13;;;;;;;5.88;100.00;98185.53;5058712;28;20032;-71
2021/12/16 02:03:41;;;;;;;39.75;18.05;;;;;;;5.92;100.00;98202.00;5058443;28;20107;-71
2021/12/16 02:06:36;;;;;;;40.28;16.98;;;;;;;5.92;100.00;98209.16;5049056;28;20052;-71
2021/12/16 02:08:59;;;;;;;43.60;16.27;;;;;;;5.90;100.00;98201.31;5055287;28;20035;-70
2021/12/16 02:27:47;;;;;;;47.88;18.42;;;;;;;5.93;100.00;98198.34;5060221;28;20660;-73
2021/12/16 02:35:48;;;;;;;47.47;17.85;;;;;;;5.93;100.00;98192.19;4996133;28;20059;-71
2021/12/16 02:38:19;;;;;;;40.60;17.98;;;;;;;5.96;100.00;98195.31;5056574;28;20029;-72
2021/12/16 02:40:48;;;;;;;47.70;18.83;;;;;;;5.99;100.00;98188.81;5043002;28;20044;-71
2021/12/16 02:48:29;;;;;;;49.00;18.38;;;;;;;5.95;100.00;98190.19;5046156;28;20107;-71
2021/12/16 02:50:59;;;;;;;45.10;18.00;;;;;;;5.97;100.00;98182.84;5051714;28;20145;-73
2021/12/16 02:53:24;;;;;;;48.17;18.42;;;;;;;5.99;100.00;98187.00;5053333;28;20067;-71
2021/12/16 02:55:50;;;;;;;74.57;18.05;;;;;;;6.01;100.00;98185.00;5059735;28;20073;-71
2021/12/16 02:58:16;;;;;;;59.33;18.27;;;;;;;6.03;100.00;98188.28;5056221;28;20041;-73
2021/12/16 03:00:47;;;;;;;185.10;19.85;;;;;;;6.06;100.00;98187.09;5056340;28;20047;-72
2021/12/16 03:03:13;;;;;;;;;;;;;;;6.07;100.00;98183.44;5056347;28;20390;-73
2021/12/16 03:05:39;;;;;;;53.55;17.48;;;;;;;6.09;100.00;98181.44;5047994;28;19908;-70
2021/12/16 03:08:06;;;;;;;69.30;18.70;;;;;;;6.10;100.00;98191.91;5057135;28;20045;-72
2021/12/16 03:11:00;;;;;;;74.90;18.55;;;;;;;6.09;100.00;98198.22;5063240;28;20032;-72
2021/12/16 03:13:32;;;;;;;64.32;18.80;;;;;;;6.12;100.00;98194.38;5044897;28;20040;-71
2021/12/16 03:19:03;;;;;;;92.90;19.17;;;;;;;6.03;100.00;98196.28;5053818;28;20033;-71
2021/12/16 03:21:34;;;;;;;54.00;18.23;;;;;;;6.04;100.00;98205.88;5054688;28;20033;-71
2021/12/16 03:39:49;;;;;;;54.13;18.38;;;;;;;6.05;100.00;98206.72;5047091;28;20024;-71
2021/12/16 03:42:19;;;;;;;47.22;18.20;;;;;;;6.05;100.00;98209.38;5046004;28;20487;-73
2021/12/16 03:44:53;;;;;;;55.50;19.33;;;;;;;6.08;100.00;98212.53;5055881;28;20140;-73
2021/12/16 03:47:28;;;;;;;63.03;18.88;;;;;;;6.08;100.00;98201.88;5052551;28;20043;-71
2021/12/16 03:49:54;;;;;;;66.32;18.23;;;;;;;6.08;100.00;98207.19;5046177;28;20036;-71
2021/12/16 03:52:23;;;;;;;159.80;18.13;;;;;;;6.03;100.00;98206.91;5056938;28;20367;-71
2021/12/16 03:54:52;;;;;;;178.20;20.40;;;;;;;6.05;100.00;98206.72;5044471;28;20063;-73
2021/12/16 03:57:25;;;;;;;196.68;20.35;;;;;;;6.03;100.00;98206.06;5055226;28;20037;-72
2021/12/16 03:59:51;;;;;;;512.25;22.45;;;;;;;6.02;100.00;98199.94;5062612;28;20040;-71
2021/12/16 04:02:41;;;;;;;456.90;22.77;;;;;;;5.98;100.00;98203.09;5044246;28;20040;-71
2021/12/16 04:05:09;;;;;;;213.43;19.70;;;;;;;5.96;100.00;98213.09;5044482;28;20095;-71
2021/12/16 04:07:42;;;;;;;211.07;18.23;;;;;;;5.94;100.00;98215.94;5038885;28;20139;-71
2021/12/16 04:10:35;;;;;;;260.02;19.35;;;;;;;5.94;100.00;98207.13;5056245;28;20044;-71
2021/12/16 04:13:07;;;;;;;397.63;21.75;;;;;;;5.92;100.00;98209.97;5040463;28;20677;-71
2021/12/16 04:15:34;;;;;;;490.50;24.52;;;;;;;5.92;100.00;98219.78;5038810;28;20041;-72
2021/12/16 04:18:01;;;;;;;77.95;18.77;;;;;;;5.79;100.00;98210.50;5052100;28;20029;-71
2021/12/16 04:20:27;;;;;;;158.15;19.33;;;;;;;5.86;100.00;98216.78;5039093;28;20056;-71
2021/12/16 04:22:55;;;;;;;142.25;18.90;;;;;;;5.88;100.00;98213.94;5052746;28;20041;-73
2021/12/16 04:25:33;;;;;;;264.65;21.80;;;;;;;5.91;100.00;98213.63;5038755;28;20037;-71
2021/12/16 04:28:06;;;;;;;231.00;21.65;;;;;;;5.88;100.00;98214.78;5045296;28;20036;-71
2021/12/16 04:30:35;;;;;;;299.52;22.10;;;;;;;5.87;100.00;98223.75;5058465;28;20036;-72
2021/12/16 04:33:04;;;;;;;155.45;20.00;;;;;;;5.86;100.00;98224.75;5041509;28;20025;-71
2021/12/16 04:35:33;;;;;;;360.63;23.75;;;;;;;5.82;100.00;98222.63;5055374;28;20079;-71
2021/12/16 04:38:00;;;;;;;437.00;23.00;;;;;;;5.82;100.00;98220.78;5040839;28;20033;-73
2021/12/16 04:40:29;;;;;;;233.50;20.25;;;;;;;5.78;100.00;98224.81;5045891;28;20066;-71
2021/12/16 04:43:01;;;;;;;374.83;23.45;;;;;;;5.74;100.00;98220.84;5038565;28;20044;-73
2021/12/16 04:45:33;;;;;;;369.10;21.33;;;;;;;5.72;100.00;98229.97;5053839;28;20068;-71
2021/12/16 04:48:00;;;;;;;516.88;25.45;;;;;;;5.69;100.00;98227.69;5045367;28;20075;-72
2021/12/16 04:50:31;;;;;;;361.80;22.95;;;;;;;5.64;100.00;98222.88;5046883;28;20028;-73
2021/12/16 04:52:56;;;;;;;388.85;23.67;;;;;;;5.64;100.00;98233.50;5056014;28;20049;-71
2021/12/16 04:55:23;;;;;;;389.75;24.90;;;;;;;5.62;100.00;98216.09;5041810;28;20052;-72
2021/12/16 04:57:51;;;;;;;246.02;20.58;;;;;;;5.67;100.00;98230.50;5052381;28;20440;-71
2021/12/16 05:00:23;;;;;;;326.77;22.25;;;;;;;5.67;100.00;98233.16;5040465;28;20037;-71
2021/12/16 05:03:01;;;;;;;420.20;24.08;;;;;;;5.68;100.00;98234.84;5043561;28;20316;-72
2021/12/16 05:05:34;;;;;;;318.08;22.65;;;;;;;5.67;100.00;98235.81;5039043;28;20078;-72
2021/12/16 05:08:01;;;;;;;324.58;21.80;;;;;;;5.67;100.00;98232.31;5038265;28;20086;-73
2021/12/16 05:10:34;;;;;;;336.15;24.02;;;;;;;5.68;100.00;98234.84;5040444;28;20039;-72
2021/12/16 05:13:15;;;;;;;381.65;22.50;;;;;;;5.73;100.00;98234.28;5057329;28;20028;-71
2021/12/16 05:15:42;;;;;;;419.20;23.20;;;;;;;5.75;100.00;98232.28;5059771;28;20033;-72
2021/12/16 05:18:12;;;;;;;410.85;26.67;;;;;;;5.74;100.00;98234.09;5057452;28;20108;-73
2021/12/16 05:20:46;;;;;;;319.33;22.70;;;;;;;5.73;100.00;98236.94;5065843;28;20036;-71
2021/12/16 05:26:16;;;;;;;65.25;17.35;;;;;;;5.69;100.00;98246.28;5041883;28;20049;-73
2021/12/16 05:28:55;;;;;;;111.05;20.63;;;;;;;5.70;100.00;98237.31;5063296;28;20125;-71
2021/12/16 05:31:23;;;;;;;181.32;19.17;;;;;;;5.71;100.00;98238.97;5059898;28;20048;-71
2021/12/16 05:33:53;;;;;;;248.17;22.43;;;;;;;5.72;100.00;98245.91;5045661;28;20067;-73
2021/12/16 05:36:19;;;;;;;441.33;21.65;;;;;;;5.72;100.00;98238.78;5045875;28;20049;-71
2021/12/16 05:38:46;;;;;;;639.20;27.50;;;;;;;5.71;100.00;98246.94;5059196;28;20545;-72
2021/12/16 05:41:15;;;;;;;522.92;24.40;;;;;;;5.71;100.00;98253.06;5041824;28;20048;-71
2021/12/16 05:43:42;;;;;;;63.33;19.35;;;;;;;5.71;100.00;98254.91;5044317;28;20056;-73
2021/12/16 05:46:09;;;;;;;64.13;19.13;;;;;;;5.65;100.00;98248.44;5045158;28;20045;-72
2021/12/16 05:48:39;;;;;;;64.30;19.63;;;;;;;5.65;100.00;98251.09;5047098;28;20041;-72
2021/12/16 05:51:09;;;;;;;129.18;20.45;;;;;;;5.67;100.00;98254.41;5057621;28;20056;-71
2021/12/16 05:53:35;;;;;;;56.63;18.67;;;;;;;5.62;100.00;98256.78;5057015;28;20033;-71
2021/12/16 05:56:07;;;;;;;64.90;21.17;;;;;;;5.62;100.00;98266.56;5055834;28;20044;-71
2021/12/16 05:58:37;;;;;;;57.45;19.27;;;;;;;5.65;100.00;98274.19;5040168;28;20556;-72
2021/12/16 06:01:15;;;;;;;83.68;22.25;;;;;;;5.61;100.00;98270.22;5039652;28;20483;-73
2021/12/16 06:03:43;;;;;;;122.93;21.95;;;;;;;5.61;100.00;98262.25;5038467;28;20119;-71
2021/12/16 06:06:10;;;;;;;284.20;23.27;;;;;;;5.65;100.00;98260.91;5044744;28;20036;-74
2021/12/16 06:08:39;;;;;;;183.35;21.60;;;;;;;5.62;100.00;98253.28;5036950;28;20379;-71
2021/12/16 06:13:39;;;;;;;140.98;20.88;;;;;;;5.62;100.00;98262.09;5058253;28;20418;-71
2021/12/16 06:29:13;;;;;;;64.18;20.73;;;;;;;5.67;100.00;98288.09;5055549;28;20036;-71
2021/12/16 06:31:39;;;;;;;55.00;19.63;;;;;;;5.66;100.00;98305.03;5056923;28;20044;-71
2021/12/16 06:34:05;;;;;;;68.35;21.48;;;;;;;5.64;100.00;98318.50;5057694;28;20311;-74
2021/12/16 06:36:30;;;;;;;62.70;20.88;;;;;;;5.65;100.00;98308.72;5057696;28;20509;-72
2021/12/16 06:38:56;;;;;;;61.35;20.90;;;;;;;5.67;100.00;98312.00;5045149;28;20061;-71
2021/12/16 06:41:37;;;;;;;63.10;20.42;;;;;;;5.69;100.00;98312.69;5043129;28;20466;-73
2021/12/16 06:44:21;;;;;;;79.47;21.30;;;;;;;5.68;100.00;98322.50;5055621;28;20037;-74
2021/12/16 06:46:48;;;;;;;65.45;21.40;;;;;;;5.74;100.00;98331.56;5056990;28;20235;-72
2021/12/16 06:49:16;;;;;;;58.70;20.20;;;;;;;5.74;100.00;98318.28;5056809;28;20460;-73
2021/12/16 06:51:51;;;;;;;70.80;21.58;;;;;;;5.72;100.00;98322.97;5057191;28;20037;-71
2021/12/16 06:54:29;;;;;;;73.13;21.05;;;;;;;5.66;100.00;98327.13;5056734;28;20033;-72
2021/12/16 06:59:39;;;;;;;142.35;21.98;;;;;;;5.74;100.00;98327.09;5056249;28;20580;-72
2021/12/16 07:04:35;;;;;;;71.00;21.52;;;;;;;5.73;100.00;98320.13;5054088;28;20041;-71
2021/12/16 07:07:01;;;;;;;80.95;21.85;;;;;;;5.63;100.00;98343.41;5053211;28;20116;-73
2021/12/16 07:09:27;;;;;;;72.30;21.27;;;;;;;5.69;100.00;98336.59;5056294;28;20150;-73
2021/12/16 07:11:57;;;;;;;88.85;22.70;;;;;;;5.72;100.00;98342.38;5058096;28;20101;-71
2021/12/16 07:14:34;;;;;;;110.90;21.85;;;;;;;5.72;100.00;98341.56;5056715;28;20037;-71
2021/12/16 07:17:03;;;;;;;112.88;21.30;;;;;;;5.75;100.00;98327.91;5053553;28;20160;-73
2021/12/16 07:19:29;;;;;;;70.25;21.92;;;;;;;5.75;100.00;98338.53;5054812;28;20139;-72
2021/12/16 07:21:55;;;;;;;122.90;22.77;;;;;;;5.69;100.00;98344.56;5052241;28;20541;-71
2021/12/16 07:24:21;;;;;;;80.65;20.08;;;;;;;5.65;100.00;98343.22;5057459;28;20494;-72
2021/12/16 07:26:48;;;;;;;105.53;20.98;;;;;;;5.63;100.00;98338.09;5055505;28;20117;-71
2021/12/16 07:29:14;;;;;;;67.25;20.48;;;;;;;5.63;100.00;98351.38;5055352;28;20033;-73
2021/12/16 07:31:40;;;;;;;77.15;21.20;;;;;;;5.70;100.00;98356.84;5056130;28;20489;-73
2021/12/16 07:34:08;;;;;;;131.07;22.63;;;;;;;5.75;100.00;98357.97;5056967;28;20166;-73
2021/12/16 07:36:35;;;;;;;269.60;23.15;;;;;;;5.73;100.00;98361.81;5055494;28;20117;-73
2021/12/16 07:39:05;;;;;;;295.83;23.73;;;;;;;5.75;100.00;98363.28;5055632;28;20033;-71
2021/12/16 07:41:33;;;;;;;222.60;22.63;;;;;;;5.74;100.00;98361.63;5056026;28;20070;-71
2021/12/16 07:44:10;;;;;;;349.63;24.80;;;;;;;5.79;100.00;98359.28;5055785;28;20049;-72
2021/12/16 07:46:53;;;;;;;460.80;23.60;;;;;;;5.78;100.00;98362.94;5054530;28;20466;-71
2021/12/16 07:49:32;;;;;;;342.52;23.25;;;;;;;5.79;100.00;98371.75;5058170;28;20383;-74
2021/12/16 07:51:59;;;;;;;182.40;22.00;;;;;;;5.75;100.00;98357.97;5044681;28;20374;-71
2021/12/16 07:54:26;;;;;;;440.95;25.00;;;;;;;5.78;100.00;98378.06;5058062;28;20036;-72
2021/12/16 07:56:54;;;;;;;345.92;22.60;;;;;;;5.80;100.00;98379.53;5056352;28;20064;-71
2021/12/16 07:59:23;;;;;;;301.20;21.70;;;;;;;5.75;100.00;98376.56;5055334;28;20040;-72
2021/12/16 08:01:49;;;;;;;465.83;23.52;;;;;;;5.75;100.00;98384.53;5037937;28;20502;-71
2021/12/16 08:04:26;;;;;;;172.60;19.23;;;;;;;5.74;100.00;98388.19;5059595;28;20066;-72
2021/12/16 08:06:54;;;;;;;69.15;19.60;;;;;;;5.70;100.00;98386.88;5056627;28;20033;-72
2021/12/16 08:09:20;;;;;;;54.35;18.45;;;;;;;5.67;100.00;98397.84;5056144;28;20044;-72
2021/12/16 08:11:48;;;;;;;58.45;19.52;;;;;;;5.66;100.00;98395.34;5056540;28;20040;-71
2021/12/16 08:14:15;;;;;;;55.42;18.38;;;;;;;5.64;100.00;98397.34;5054231;28;20029;-71
2021/12/16 08:16:41;;;;;;;49.42;18.08;;;;;;;5.56;100.00;98390.25;5054471;28;20338;-72
2021/12/16 08:19:07;;;;;;;55.95;18.48;;;;;;;5.58;100.00;98397.03;5055330;28;20031;-73
2021/12/16 08:21:33;;;;;;;44.50;17.63;;;;;;;5.64;100.00;98398.19;5053891;28;20068;-72
2021/12/16 08:24:01;;;;;;;49.08;17.45;;;;;;;5.69;100.00;98400.34;5055556;28;20051;-73
2021/12/16 08:26:28;;;;;;;42.97;16.35;;;;;;;5.67;100.00;98400.50;5053061;28;20475;-72
2021/12/16 08:28:54;;;;;;;43.40;16.35;;;;;;;5.66;100.00;98400.66;5054392;28;20393;-71
2021/12/16 08:31:19;;;;;;;44.28;17.33;;;;;;;5.66;100.00;98413.94;5053801;28;20037;-71
2021/12/16 08:33:46;;;;;;;48.97;17.30;;;;;;;5.69;100.00;98405.66;5053151;28;20041;-72
2021/12/16 08:36:13;;;;;;;44.33;17.40;;;;;;;5.74;100.00;98409.44;5055886;28;20394;-71
2021/12/16 08:38:39;;;;;;;44.15;17.52;;;;;;;5.76;100.00;98407.47;5056531;28;20041;-72
2021/12/16 08:41:12;;;;;;;44.90;17.27;;;;;;;5.82;100.00;98408.59;5038431;28;20611;-74
2021/12/16 08:43:41;;;;;;;48.00;18.00;;;;;;;5.84;100.00;98401.28;5055403;28;20048;-72
2021/12/16 08:46:12;;;;;;;48.75;18.83;;;;;;;5.85;100.00;98417.06;5056785;28;20054;-74
2021/12/16 08:48:40;;;;;;;52.33;19.35;;;;;;;5.90;100.00;98421.03;5061290;28;20107;-71
2021/12/16 08:51:06;;;;;;;52.50;19.27;;;;;;;5.96;100.00;98415.06;5058666;28;20061;-71
2021/12/16 08:53:32;;;;;;;52.20;19.63;;;;;;;6.02;100.00;98422.34;5058973;28;20107;-71
2021/12/16 08:55:59;;;;;;;46.38;18.45;;;;;;;6.07;100.00;98426.16;5056115;28;20037;-71
2021/12/16 08:58:26;;;;;;;54.45;18.80;;;;;;;6.12;100.00;98433.59;5060238;28;20024;-72
2021/12/16 09:01:03;;;;;;;50.30;19.88;;;;;;;6.14;100.00;98431.59;5059377;28;20476;-71
2021/12/16 09:03:30;;;;;;;51.63;18.95;;;;;;;6.18;100.00;98432.91;5059766;28;20115;-73
2021/12/16 09:05:59;;;;;;;47.40;17.30;;;;;;;6.18;100.00;98434.75;5058829;28;20064;-74
2021/12/16 09:08:24;;;;;;;52.13;18.25;;;;;;;6.25;100.00;98438.38;5056986;28;20040;-72
2021/12/16 09:10:51;;;;;;;45.00;19.05;;;;;;;6.24;100.00;98440.22;5060174;28;20029;-71
2021/12/16 09:13:17;;;;;;;53.47;20.02;;;;;;;6.27;100.00;98439.84;5058514;28;20032;-71
2021/12/16 09:15:53;;;;;;;46.75;18.25;;;;;;;6.39;100.00;98449.13;5059817;28;20710;-74
2021/12/16 09:18:23;;;;;;;53.70;17.80;;;;;;;6.48;100.00;98441.09;5059690;28;20040;-71
2021/12/16 09:20:50;;;;;;;45.35;17.65;;;;;;;6.57;100.00;98451.50;5047306;28;20116;-71
2021/12/16 09:23:16;;;;;;;49.55;18.35;;;;;;;6.61;100.00;98457.28;5057608;28;20045;-72
2021/12/16 09:25:45;;;;;;;47.28;18.13;;;;;;;6.68;100.00;98460.91;5058088;28;20043;-72
2021/12/16 09:28:11;;;;;;;41.83;16.73;;;;;;;6.63;100.00;98447.31;5057942;28;20044;-72
2021/12/16 09:30:37;;;;;;;45.80;17.35;;;;;;;6.68;100.00;98467.06;5042825;28;20048;-71
2021/12/16 09:33:05;;;;;;;43.33;16.48;;;;;;;6.72;100.00;98470.22;5064869;28;20029;-73
2021/12/16 09:35:35;;;;;;;51.33;18.35;;;;;;;6.73;100.00;98477.19;5060839;28;20052;-71
2021/12/16 09:38:03;;;;;;;47.47;17.25;;;;;;;6.72;100.00;98472.88;5060868;28;20425;-71
2021/12/16 09:40:34;;;;;;;47.60;17.65;;;;;;;6.76;100.00;98471.50;5057440;28;20040;-71
2021/12/16 09:43:02;;;;;;;43.83;18.13;;;;;;;6.83;100.00;98477.78;5057234;28;20175;-71
2021/12/16 09:45:28;;;;;;;43.75;16.48;;;;;;;6.85;100.00;98477.63;5058183;28;20343;-71
2021/12/16 09:47:53;;;;;;;43.65;17.58;;;;;;;6.89;100.00;98469.09;5055725;28;20056;-73
2021/12/16 09:50:28;;;;;;;45.67;17.35;;;;;;;6.98;100.00;98461.91;5056098;28;20048;-71
2021/12/16 09:52:54;;;;;;;31.77;14.50;;;;;;;6.98;100.00;98465.38;5056522;28;20041;-71
2021/12/16 09:55:20;;;;;;;36.13;15.02;;;;;;;6.94;100.00;98456.13;5057521;28;20353;-71
2021/12/16 09:57:47;;;;;;;35.78;15.45;;;;;;;6.96;100.00;98464.75;5056349;28;20064;-74
2021/12/16 10:00:18;;;;;;;42.95;14.95;;;;;;;6.98;100.00;98461.91;5057282;28;20048;-71
2021/12/16 10:02:44;;;;;;;40.42;15.77;;;;;;;6.92;100.00;98463.44;5056255;28;20043;-71
2021/12/16 10:05:10;;;;;;;43.38;16.10;;;;;;;6.90;100.00;98459.28;5057814;28;20032;-71
2021/12/16 10:07:35;;;;;;;39.88;15.38;;;;;;;6.90;100.00;98457.47;5057795;28;20103;-71
2021/12/16 10:10:09;;;;;;;43.78;16.52;;;;;;;6.93;100.00;98461.63;5059181;28;20074;-71
2021/12/16 10:12:39;;;;;;;38.63;15.27;;;;;;;6.88;100.00;98454.16;5057749;28;20070;-72
2021/12/16 10:17:23;;;;;;;37.28;15.15;;;;;;;6.99;100.00;98456.38;5060023;28;20575;-71
2021/12/16 10:17:59;;;;;;;44.67;16.88;;;;;;;7.07;100.00;98460.00;5057351;28;20072;-71
2021/12/16 10:20:31;;;;;;;42.55;15.77;;;;;;;7.07;100.00;98460.00;5058048;28;20039;-71
2021/12/16 10:23:08;;;;;;;39.58;15.93;;;;;;;7.14;100.00;98456.44;5057543;28;20036;-71
2021/12/16 10:25:38;;;;;;;40.25;16.55;;;;;;;7.14;100.00;98452.97;5057983;28;20033;-71
2021/12/16 10:28:07;;;;;;;40.17;14.63;;;;;;;7.19;100.00;98456.75;5055301;28;20151;-71
2021/12/16 10:30:57;;;;;;;37.42;13.48;;;;;;;7.17;100.00;98457.94;5056048;28;20383;-71
2021/12/16 10:33:26;;;;;;;32.93;14.13;;;;;;;7.24;100.00;98456.22;5048451;28;20336;-71
2021/12/16 10:36:24;;;;;;;34.35;14.18;;;;;;;7.19;100.00;98461.25;5057482;28;20279;-71
2021/12/16 10:38:52;;;;;;;37.08;15.00;;;;;;;7.22;100.00;98459.06;5037948;28;20057;-71
2021/12/16 10:41:26;;;;;;;48.30;20.17;;;;;;;7.34;100.00;98464.81;5058790;28;20055;-71
2021/12/16 10:44:14;;;;;;;37.67;15.02;;;;;;;7.43;100.00;98461.06;5056302;28;20067;-71
2021/12/16 10:46:47;;;;;;;33.97;14.38;;;;;;;7.48;100.00;98458.69;5057815;28;20040;-71
2021/12/16 10:49:17;;;;;;;30.02;13.98;;;;;;;7.56;100.00;98467.63;5056944;28;20067;-71
2021/12/16 10:51:46;;;;;;;37.63;14.75;;;;;;;7.65;100.00;98466.53;5057286;28;20146;-71
2021/12/16 10:54:19;;;;;;;37.53;13.82;;;;;;;7.82;100.00;98462.69;5053895;28;20037;-74
2021/12/16 10:56:45;;;;;;;35.50;12.82;;;;;;;7.95;100.00;98456.72;5054449;28;20067;-71
2021/12/16 10:59:15;;;;;;;34.50;13.52;;;;;;;8.02;100.00;98455.81;5057127;28;20080;-72
2021/12/16 11:01:43;;;;;;;27.13;12.45;;;;;;;8.03;100.00;98456.66;5056434;28;20040;-71
2021/12/16 11:04:14;;;;;;;36.60;14.88;;;;;;;8.12;100.00;98450.19;5058912;28;20036;-71
2021/12/16 11:06:50;;;;;;;31.23;13.98;;;;;;;8.37;100.00;98459.59;5054835;28;20479;-71
2021/12/16 11:09:34;;;;;;;33.83;13.95;;;;;;;8.43;100.00;98446.53;5054641;28;20033;-72
2021/12/16 11:12:20;;;;;;;35.63;13.13;;;;;;;8.60;100.00;98453.31;5056269;28;20084;-72
2021/12/16 11:15:18;;;;;;;30.85;13.25;;;;;;;8.78;100.00;98450.22;5046109;28;20056;-71
2021/12/16 11:17:49;;;;;;;30.92;13.15;;;;;;;8.74;100.00;98448.94;5036753;28;20114;-72
2021/12/16 11:20:17;;;;;;;36.90;13.30;;;;;;;8.64;100.00;98449.25;5061383;28;20028;-72
2021/12/16 11:22:43;;;;;;;30.88;14.10;;;;;;;8.41;100.00;98449.38;5060848;28;20040;-74
2021/12/16 11:25:14;;;;;;;37.60;14.00;;;;;;;8.30;100.00;98455.16;5045373;28;20105;-71
2021/12/16 11:27:46;;;;;;;36.95;14.75;;;;;;;8.26;100.00;98452.03;5054328;28;20033;-71
2021/12/16 11:30:31;;;;;;;34.85;13.23;;;;;;;8.27;100.00;98458.19;5055978;28;21747;-71
2021/12/16 11:33:12;;;;;;;34.72;13.45;;;;;;;8.29;100.00;98443.66;5055175;28;20463;-72
2021/12/16 11:35:58;;;;;;;30.48;13.23;;;;;;;8.32;100.00;98434.44;5053854;28;20043;-71
2021/12/16 11:38:35;;;;;;;30.17;12.23;;;;;;;8.35;100.00;98437.63;5053429;28;20501;-71
2021/12/16 11:41:22;;;;;;;37.67;16.13;;;;;;;8.41;100.00;98449.38;5055752;28;20044;-71
2021/12/16 11:43:59;;;;;;;37.47;15.25;;;;;;;8.45;100.00;98448.00;5054250;28;20052;-71
2021/12/16 11:46:30;;;;;;;38.38;15.40;;;;;;;8.42;100.00;98439.53;5057279;28;20494;-72
2021/12/16 11:49:02;;;;;;;36.63;15.05;;;;;;;8.18;100.00;98452.13;5056410;28;20151;-71
2021/12/16 11:51:36;;;;;;;39.75;15.95;;;;;;;8.38;100.00;98449.75;5056184;28;20044;-71
2021/12/16 11:54:13;;;;;;;35.03;14.05;;;;;;;8.33;100.00;98441.47;5055329;28;20494;-71
2021/12/16 11:56:47;;;;;;;34.70;14.30;;;;;;;8.30;100.00;98444.47;5055049;28;20041;-72
2021/12/16 11:59:28;;;;;;;31.98;14.68;;;;;;;8.20;100.00;98439.44;5055305;28;20036;-72
2021/12/16 12:01:54;;;;;;;40.10;14.65;;;;;;;8.10;100.00;98447.72;5054781;28;20044;-71
2021/12/16 12:04:27;;;;;;;35.65;14.27;;;;;;;8.08;100.00;98433.72;5053995;28;20041;-70
2021/12/16 12:06:53;;;;;;;35.80;14.60;;;;;;;8.12;100.00;98441.38;5056135;28;20112;-73
2021/12/16 12:09:18;;;;;;;35.83;14.25;;;;;;;8.38;100.00;98444.41;5053696;28;20187;-73
2021/12/16 12:11:44;;;;;;;40.83;16.23;;;;;;;8.63;100.00;98445.72;5056937;28;20044;-72
2021/12/16 12:14:13;;;;;;;39.47;16.35;;;;;;;8.53;100.00;98445.22;5054286;28;20056;-72
2021/12/16 12:16:46;;;;;;;43.47;16.10;;;;;;;8.41;100.00;98444.06;5057051;28;20049;-72
2021/12/16 12:19:23;;;;;;;35.65;15.40;;;;;;;8.35;100.00;98436.78;5056162;28;20086;-71
2021/12/16 12:21:57;;;;;;;38.92;14.88;;;;;;;8.34;100.00;98443.94;5052702;28;20059;-73
2021/12/16 12:24:46;;;;;;;40.90;16.27;;;;;;;8.36;100.00;98449.13;5055289;28;20094;-71
2021/12/16 12:27:14;;;;;;;36.92;14.73;;;;;;;8.27;100.00;98443.03;5052780;28;20041;-71
2021/12/16 12:29:48;;;;;;;38.63;15.57;;;;;;;8.09;100.00;98456.75;5053607;28;20368;-71
2021/12/16 12:32:19;;;;;;;35.53;15.50;;;;;;;8.07;100.00;98448.06;5055467;28;20550;-72
2021/12/16 12:34:49;;;;;;;37.30;15.93;;;;;;;7.99;100.00;98448.16;5055687;28;20032;-71
2021/12/16 12:37:19;;;;;;;39.10;16.00;;;;;;;8.00;100.00;98455.16;5054747;28;20044;-71
2021/12/16 12:40:04;;;;;;;40.10;17.67;;;;;;;7.88;100.00;98453.16;5058866;28;20119;-71
2021/12/16 12:42:30;;;;;;;40.70;16.45;;;;;;;7.77;100.00;98443.75;5058134;28;20045;-73
2021/12/16 12:44:55;;;;;;;43.80;17.05;;;;;;;7.64;100.00;98456.88;5054017;28;20033;-72
2021/12/16 12:47:27;;;;;;;39.95;16.10;;;;;;;7.60;100.00;98455.56;5053274;28;20114;-71
2021/12/16 12:50:05;;;;;;;43.05;16.92;;;;;;;7.58;100.00;98455.75;5052370;28;20045;-72
2021/12/16 12:52:32;;;;;;;41.80;16.10;;;;;;;7.66;100.00;98462.84;5054645;28;20072;-71
2021/12/16 12:55:08;;;;;;;42.40;17.33;;;;;;;7.60;100.00;98458.25;5054189;28;20106;-72
2021/12/16 12:57:36;;;;;;;45.45;18.45;;;;;;;7.64;100.00;98457.72;5054424;28;20406;-71
2021/12/16 13:00:08;;;;;;;42.75;17.55;;;;;;;7.76;100.00;98453.56;5053507;28;20055;-72
2021/12/16 13:02:36;;;;;;;37.30;16.20;;;;;;;7.78;100.00;98458.72;5054948;28;20049;-72
2021/12/16 13:05:18;;;;;;;35.78;14.90;;;;;;;7.70;100.00;98450.81;5052201;28;20032;-71
2021/12/16 13:07:52;;;;;;;38.88;16.08;;;;;;;7.56;100.00;98455.13;5054325;28;20060;-73
2021/12/16 13:10:29;;;;;;;40.00;16.60;;;;;;;7.49;100.00;98449.69;5053225;28;20040;-72
2021/12/16 13:13:23;;;;;;;41.33;16.85;;;;;;;7.43;100.00;98450.41;5055381;28;20037;-70
2021/12/16 13:16:58;;;;;;;39.03;16.30;;;;;;;7.38;100.00;98458.09;5055111;28;20049;-71
2021/12/16 13:25:15;;;;;;;47.95;16.75;;;;;;;7.34;100.00;98463.97;5056033;28;20082;-71
2021/12/16 13:27:44;;;;;;;44.33;17.55;;;;;;;7.33;100.00;98457.81;5055528;28;20039;-71
2021/12/16 13:33:13;;;;;;;45.95;17.55;;;;;;;7.32;100.00;98458.84;5055701;28;20054;-71
2021/12/16 13:35:47;;;;;;;46.08;16.95;;;;;;;7.29;100.00;98458.34;5061381;28;20086;-72
2021/12/16 13:38:13;;;;;;;53.38;18.35;;;;;;;7.28;100.00;98460.19;5058629;28;20052;-71
2021/12/16 13:40:42;;;;;;;56.53;19.20;;;;;;;7.32;100.00;98463.34;5059158;28;20028;-72
2021/12/16 13:43:21;;;;;;;53.08;19.33;;;;;;;7.28;100.00;98465.50;5057647;28;20051;-71
2021/12/16 14:10:12;;;;;;;51.38;18.88;;;;;;;7.07;100.00;98484.78;5057917;28;20064;-72
2021/12/16 14:23:24;;;;;;;49.60;19.65;;;;;;;7.06;100.00;98477.81;5057893;28;20116;-71
2021/12/16 14:26:16;;;;;;;45.08;17.65;;;;;;;7.06;100.00;98480.47;5058181;28;20340;-72
2021/12/16 14:37:27;;;;;;;41.78;17.38;;;;;;;7.03;100.00;98490.66;5057242;28;20098;-72
2021/12/16 14:48:04;;;;;;;44.60;17.92;;;;;;;7.00;100.00;98497.16;5057292;28;20055;-71
2021/12/16 14:50:46;;;;;;;53.00;17.60;;;;;;;6.98;100.00;98494.66;5040649;28;20378;-71
2021/12/16 14:53:22;;;;;;;41.75;17.48;;;;;;;6.97;100.00;98501.00;5056045;28;20034;-73
2021/12/16 14:55:50;;;;;;;46.78;18.35;;;;;;;6.97;100.00;98492.19;5057373;28;20082;-72
2021/12/16 14:58:18;;;;;;;46.95;18.17;;;;;;;6.92;100.00;98503.34;5056287;28;20118;-71
2021/12/16 15:00:49;;;;;;;52.47;20.67;;;;;;;6.85;100.00;98507.75;5055460;28;20672;-72
2021/12/16 15:03:22;;;;;;;59.07;20.60;;;;;;;6.83;100.00;98500.91;5057743;28;20526;-71
2021/12/16 15:05:55;;;;;;;46.72;18.23;;;;;;;6.80;100.00;98506.59;5054968;28;20340;-72
2021/12/16 15:08:40;;;;;;;47.45;19.48;;;;;;;6.81;100.00;98503.75;5056184;28;20605;-72
2021/12/16 15:11:11;;;;;;;47.88;17.80;;;;;;;6.82;100.00;98507.25;5054902;28;20090;-71
2021/12/16 15:13:52;;;;;;;;;;;;;;;6.75;100.00;98506.28;5059277;28;20055;-71
2021/12/16 15:16:45;;;;;;;49.20;18.25;;;;;;;6.73;100.00;98513.63;5054653;28;19912;-71